createdAt,value
2023-02-25T00:02:11.180Z,24.57
2023-02-25T00:04:56.654Z,20.70
2023-02-25T00:07:28.652Z,19.87
2023-02-25T00:09:57.104Z,24.87
2023-02-25T00:12:25.565Z,30.10
2023-02-25T00:14:53.963Z,24.23
2023-02-25T00:17:22.380Z,19.53
2023-02-25T00:19:50.825Z,20.30
2023-02-25T00:22:19.986Z,20.97
2023-02-25T00:24:56.586Z,21.23
2023-02-25T00:27:26.247Z,27.97
2023-02-25T00:29:55.618Z,21.73
2023-02-25T00:32:25.103Z,20.27
2023-02-25T00:34:53.967Z,24.43
2023-02-25T00:37:22.420Z,23.60
2023-02-25T00:39:52.315Z,21.63
2023-02-25T00:42:21.067Z,22.93
2023-02-25T00:44:51.845Z,23.43
2023-02-25T00:47:21.578Z,21.40
2023-02-25T00:49:50.629Z,25.27
2023-02-25T00:52:19.822Z,19.80
2023-02-25T00:54:48.294Z,22.13
2023-02-25T00:57:18.217Z,17.00
2023-02-25T00:59:46.750Z,23.47
2023-02-25T01:02:15.459Z,19.73
2023-02-25T01:04:44.293Z,20.13
2023-02-25T01:07:13.121Z,23.37
2023-02-25T01:09:41.722Z,21.90
2023-02-25T01:12:10.568Z,23.03
2023-02-25T01:15:06.668Z,19.30
2023-02-25T01:18:09.194Z,21.60
2023-02-25T01:20:40.902Z,18.47
2023-02-25T01:23:09.529Z,20.87
2023-02-25T01:25:41.999Z,20.30
2023-02-25T01:28:10.495Z,24.17
2023-02-25T01:30:40.452Z,24.53
2023-02-25T01:33:18.083Z,45.27
2023-02-25T01:35:46.498Z,34.37
2023-02-25T01:38:24.190Z,15.60
2023-02-25T01:40:59.311Z,19.20
2023-02-25T01:43:29.170Z,25.03
2023-02-25T01:45:59.114Z,21.77
2023-02-25T01:48:32.485Z,20.40
2023-02-25T01:51:07.136Z,26.13
2023-02-25T01:53:41.458Z,31.27
2023-02-25T01:56:15.666Z,28.97
2023-02-25T01:58:45.565Z,32.20
2023-02-25T02:01:21.334Z,36.10
2023-02-25T02:03:52.384Z,36.83
2023-02-25T02:06:28.153Z,38.13
2023-02-25T02:08:57.690Z,39.30
2023-02-25T02:11:26.117Z,33.97
2023-02-25T02:14:15.247Z,36.73
2023-02-25T02:17:21.947Z,38.83
2023-02-25T02:20:14.183Z,38.53
2023-02-25T02:23:00.238Z,39.33
2023-02-25T02:26:12.588Z,32.47
2023-02-25T02:29:32.458Z,33.10
2023-02-25T02:32:15.410Z,36.23
2023-02-25T02:35:19.085Z,43.33
2023-02-25T02:37:59.806Z,38.40
2023-02-25T02:40:44.680Z,34.57
2023-02-25T02:43:30.022Z,35.10
2023-02-25T02:46:05.946Z,38.57
2023-02-25T02:48:44.691Z,38.90
2023-02-25T02:51:20.835Z,37.03
2023-02-25T02:53:56.470Z,35.13
2023-02-25T02:56:28.917Z,34.77
2023-02-25T02:59:13.030Z,36.40
2023-02-25T03:01:51.500Z,36.40
2023-02-25T03:04:29.106Z,44.13
2023-02-25T03:07:05.721Z,37.03
2023-02-25T03:09:41.068Z,32.93
2023-02-25T03:12:09.779Z,34.10
2023-02-25T03:14:39.138Z,30.27
2023-02-25T03:17:14.144Z,39.60
2023-02-25T03:19:51.948Z,32.10
2023-02-25T03:22:27.778Z,30.97
2023-02-25T03:25:06.075Z,36.83
2023-02-25T03:27:40.754Z,40.00
2023-02-25T03:30:19.871Z,34.67
2023-02-25T03:33:27.809Z,33.23
2023-02-25T03:36:03.177Z,48.70
2023-02-25T03:38:34.450Z,51.77
2023-02-25T03:41:06.139Z,67.00
2023-02-25T03:43:42.251Z,46.80
2023-02-25T03:46:11.760Z,57.17
2023-02-25T03:48:42.430Z,53.60
2023-02-25T03:51:16.476Z,47.23
2023-02-25T03:53:45.167Z,42.47
2023-02-25T03:56:14.374Z,45.23
2023-02-25T03:58:44.458Z,50.23
2023-02-25T04:01:17.853Z,50.80
2023-02-25T04:03:46.460Z,52.90
2023-02-25T04:06:31.934Z,43.23
2023-02-25T04:09:00.565Z,47.20
2023-02-25T04:11:29.145Z,42.17
2023-02-25T04:13:57.601Z,45.37
2023-02-25T04:16:26.491Z,51.83
2023-02-25T04:18:55.000Z,44.10
2023-02-25T04:21:31.663Z,49.43
2023-02-25T04:24:01.140Z,43.03
2023-02-25T04:26:30.167Z,38.53
2023-02-25T04:28:58.603Z,35.80
2023-02-25T04:31:27.390Z,35.23
2023-02-25T04:33:58.181Z,35.40
2023-02-25T04:36:31.448Z,31.23
2023-02-25T04:39:02.709Z,35.50
2023-02-25T04:41:56.395Z,32.80
2023-02-25T04:44:25.069Z,35.20
2023-02-25T04:47:24.290Z,30.23
2023-02-25T04:49:52.781Z,32.53
2023-02-25T04:52:22.779Z,39.50
2023-02-25T04:54:51.452Z,34.20
2023-02-25T04:57:19.952Z,29.80
2023-02-25T04:59:48.599Z,29.87
2023-02-25T05:02:17.199Z,32.23
2023-02-25T05:04:45.894Z,31.33
2023-02-25T05:07:14.465Z,28.53
2023-02-25T05:09:45.122Z,28.83
2023-02-25T05:12:13.593Z,35.77
2023-02-25T05:14:45.988Z,52.10
2023-02-25T05:17:15.802Z,41.37
2023-02-25T05:19:44.406Z,47.37
2023-02-25T05:22:12.858Z,44.57
2023-02-25T05:24:41.381Z,41.00
2023-02-25T05:27:11.152Z,44.50
2023-02-25T05:29:39.744Z,39.30
2023-02-25T05:32:08.976Z,38.80
2023-02-25T05:34:37.615Z,39.27
2023-02-25T05:37:11.828Z,37.77
2023-02-25T05:39:40.278Z,35.90
2023-02-25T05:42:10.121Z,34.57
2023-02-25T05:44:38.691Z,31.27
2023-02-25T05:47:08.473Z,36.27
2023-02-25T05:49:36.970Z,34.10
2023-02-25T05:52:05.429Z,38.40
2023-02-25T05:54:33.958Z,30.83
2023-02-25T05:57:02.450Z,33.57
2023-02-25T05:59:32.728Z,37.47
2023-02-25T06:02:01.656Z,31.67
2023-02-25T06:04:30.153Z,37.77
2023-02-25T06:06:58.712Z,36.30
2023-02-25T06:09:27.306Z,39.53
2023-02-25T06:11:55.778Z,32.30
2023-02-25T06:14:24.371Z,38.90
2023-02-25T06:16:56.867Z,38.97
2023-02-25T06:19:27.431Z,34.00
2023-02-25T06:21:56.740Z,36.03
2023-02-25T06:24:25.963Z,32.00
2023-02-25T06:26:54.465Z,31.87
2023-02-25T06:29:22.921Z,32.07
2023-02-25T06:31:53.346Z,30.67
2023-02-25T06:34:22.209Z,28.47
2023-02-25T06:36:50.756Z,31.53
2023-02-25T06:39:19.182Z,28.10
2023-02-25T06:41:49.457Z,28.60
2023-02-25T06:44:17.951Z,24.10
2023-02-25T06:47:27.278Z,22.50
2023-02-25T06:49:57.240Z,26.27
2023-02-25T06:52:26.066Z,25.13
2023-02-25T06:54:54.592Z,30.17
2023-02-25T06:57:23.000Z,33.93
2023-02-25T06:59:53.272Z,26.60
2023-02-25T07:02:21.760Z,32.57
2023-02-25T07:04:54.473Z,32.00
2023-02-25T07:07:25.223Z,33.17
2023-02-25T07:09:53.672Z,32.93
2023-02-25T07:12:22.268Z,40.63
2023-02-25T07:14:50.824Z,36.83
2023-02-25T07:17:19.651Z,37.43
2023-02-25T07:19:48.183Z,31.97
2023-02-25T07:22:19.857Z,28.30
2023-02-25T07:24:48.338Z,34.80
2023-02-25T07:27:16.879Z,29.33
2023-02-25T07:29:45.373Z,32.57
2023-02-25T07:32:14.002Z,29.27
2023-02-25T07:34:42.800Z,33.13
2023-02-25T07:37:12.943Z,39.10
2023-02-25T07:39:42.844Z,36.07
2023-02-25T07:42:11.332Z,39.10
2023-02-25T07:44:47.688Z,38.17
2023-02-25T07:47:16.128Z,52.13
2023-02-25T07:49:44.578Z,49.40
2023-02-25T07:52:13.089Z,42.87
2023-02-25T07:54:43.309Z,35.57
2023-02-25T07:57:12.213Z,28.63
2023-02-25T07:59:40.873Z,28.00
2023-02-25T08:02:11.782Z,31.37
2023-02-25T08:04:40.291Z,36.43
2023-02-25T08:07:08.849Z,28.23
2023-02-25T08:09:37.260Z,24.40
2023-02-25T08:12:07.166Z,16.03
2023-02-25T08:14:35.762Z,19.80
2023-02-25T08:17:04.323Z,18.67
2023-02-25T08:19:32.722Z,15.67
2023-02-25T08:22:01.448Z,19.03
2023-02-25T08:24:29.918Z,17.90
2023-02-25T08:26:58.367Z,16.67
2023-02-25T08:29:28.253Z,14.70
2023-02-25T08:31:56.998Z,19.03
2023-02-25T08:34:26.039Z,19.07
2023-02-25T08:36:54.530Z,18.60
2023-02-25T08:39:23.067Z,15.33
2023-02-25T08:41:51.632Z,22.77
2023-02-25T08:44:20.989Z,15.00
2023-02-25T08:46:50.868Z,21.43
2023-02-25T08:49:19.529Z,16.63
2023-02-25T08:51:50.948Z,23.57
2023-02-25T08:54:19.437Z,23.33
2023-02-25T08:56:50.874Z,13.90
2023-02-25T08:59:19.760Z,16.73
2023-02-25T09:01:49.305Z,23.23
2023-02-25T09:04:22.889Z,17.67
2023-02-25T09:06:54.215Z,18.67
2023-02-25T09:09:26.385Z,24.20
2023-02-25T09:11:56.094Z,21.33
2023-02-25T09:14:24.642Z,21.47
2023-02-25T09:16:53.258Z,22.30
2023-02-25T09:19:47.802Z,16.00
2023-02-25T09:22:16.241Z,21.30
2023-02-25T09:25:34.114Z,18.63
2023-02-25T09:28:02.616Z,16.73
2023-02-25T09:30:31.057Z,15.60
2023-02-25T09:32:59.650Z,15.87
2023-02-25T09:35:29.742Z,15.67
2023-02-25T09:37:59.115Z,17.83
2023-02-25T09:40:27.900Z,17.20
2023-02-25T09:43:10.117Z,15.83
2023-02-25T09:45:39.048Z,30.60
2023-02-25T09:48:19.607Z,16.80
2023-02-25T09:50:54.723Z,17.90
2023-02-25T09:53:32.386Z,17.57
2023-02-25T09:56:02.547Z,22.37
2023-02-25T09:58:51.608Z,18.93
2023-02-25T10:01:34.489Z,22.37
2023-02-25T10:04:10.031Z,13.70
2023-02-25T10:06:44.456Z,18.50
2023-02-25T10:09:25.271Z,19.43
2023-02-25T10:12:06.397Z,22.03
2023-02-25T10:15:09.577Z,18.73
2023-02-25T10:17:52.119Z,29.60
2023-02-25T10:20:44.878Z,19.03
2023-02-25T10:23:30.986Z,20.63
2023-02-25T10:26:07.354Z,19.40
2023-02-25T10:28:37.387Z,17.70
2023-02-25T10:31:09.292Z,15.90
2023-02-25T10:33:41.103Z,18.20
2023-02-25T10:36:16.127Z,16.97
2023-02-25T10:39:02.101Z,21.70
2023-02-25T10:41:30.819Z,19.63
2023-02-25T10:43:59.572Z,21.37
2023-02-25T10:46:35.601Z,19.10
2023-02-25T10:49:16.652Z,19.80
2023-02-25T10:52:06.326Z,19.53
2023-02-25T10:54:46.881Z,20.80
2023-02-25T10:57:19.195Z,19.00
2023-02-25T11:00:02.418Z,23.80
2023-02-25T11:02:36.864Z,22.77
2023-02-25T11:05:05.900Z,20.80
2023-02-25T11:07:42.330Z,21.03
2023-02-25T11:10:35.138Z,15.40
2023-02-25T11:13:06.117Z,15.27
2023-02-25T11:15:45.165Z,19.70
2023-02-25T11:18:23.540Z,20.97
2023-02-25T11:20:56.202Z,14.70
2023-02-25T11:23:32.268Z,13.33
2023-02-25T11:26:02.594Z,14.67
2023-02-25T11:28:39.386Z,15.03
2023-02-25T11:31:16.434Z,23.03
2023-02-25T11:33:51.657Z,17.80
2023-02-25T11:36:24.802Z,15.30
2023-02-25T11:39:22.038Z,17.50
2023-02-25T11:41:55.457Z,15.33
2023-02-25T11:44:29.966Z,24.30
2023-02-25T11:47:05.483Z,21.57
2023-02-25T11:50:13.659Z,23.93
2023-02-25T11:52:47.706Z,21.90
2023-02-25T11:55:36.607Z,16.17
2023-02-25T11:58:23.984Z,15.67
2023-02-25T12:01:01.193Z,19.70
2023-02-25T12:04:01.388Z,17.60
2023-02-25T12:06:51.545Z,14.40
2023-02-25T12:10:33.649Z,20.57
2023-02-25T12:13:42.678Z,22.03
2023-02-25T12:17:12.720Z,16.17
2023-02-25T12:20:19.567Z,16.07
2023-02-25T12:23:45.199Z,14.27
2023-02-25T12:26:22.485Z,14.73
2023-02-25T12:29:14.091Z,19.20
2023-02-25T12:32:26.703Z,16.27
2023-02-25T12:35:54.503Z,13.27
2023-02-25T12:39:06.116Z,14.27
2023-02-25T12:41:41.973Z,14.07
2023-02-25T12:45:22.945Z,15.57
2023-02-25T12:48:44.690Z,16.07
2023-02-25T12:51:46.877Z,23.13
2023-02-25T12:54:38.908Z,16.33
2023-02-25T12:57:37.624Z,16.53
2023-02-25T13:00:54.099Z,16.03
2023-02-25T13:03:49.477Z,18.30
2023-02-25T13:06:53.194Z,18.77
2023-02-25T13:09:52.839Z,11.57
2023-02-25T13:12:54.321Z,15.43
2023-02-25T13:15:34.053Z,12.63
2023-02-25T13:18:20.209Z,15.70
2023-02-25T13:21:06.767Z,17.07
2023-02-25T13:24:01.281Z,16.33
2023-02-25T13:26:50.119Z,14.43
2023-02-25T13:30:08.261Z,16.83
2023-02-25T13:32:48.524Z,20.43
2023-02-25T13:35:33.593Z,13.63
2023-02-25T13:38:25.004Z,11.17
2023-02-25T13:41:13.180Z,14.27
2023-02-25T13:44:18.446Z,17.00
2023-02-25T13:47:32.680Z,18.70
2023-02-25T13:50:43.015Z,14.33
2023-02-25T13:53:40.025Z,19.03
2023-02-25T13:56:33.157Z,14.70
2023-02-25T13:59:23.446Z,17.63
2023-02-25T14:02:14.756Z,17.23
2023-02-25T14:05:13.242Z,17.60
2023-02-25T14:08:09.041Z,14.30
2023-02-25T14:11:15.628Z,20.67
2023-02-25T14:14:26.080Z,15.43
2023-02-25T14:20:51.427Z,13.93
2023-02-25T14:23:43.264Z,21.30
2023-02-25T14:26:35.545Z,13.67
2023-02-25T14:29:35.939Z,14.63
2023-02-25T14:32:31.627Z,15.53
2023-02-25T14:35:23.669Z,14.83
2023-02-25T14:38:07.662Z,18.40
2023-02-25T14:40:46.401Z,14.83
2023-02-25T14:43:33.305Z,19.87
2023-02-25T14:46:15.906Z,13.37
2023-02-25T14:48:51.244Z,15.63
2023-02-25T14:51:45.725Z,18.37
2023-02-25T14:54:52.209Z,12.07
2023-02-25T14:58:10.532Z,14.23
2023-02-25T15:01:11.873Z,16.40
2023-02-25T15:04:19.082Z,14.73
2023-02-25T15:07:31.185Z,17.53
2023-02-25T15:10:19.763Z,13.60
2023-02-25T15:13:25.983Z,14.50
2023-02-25T15:16:35.813Z,12.27
2023-02-25T15:19:38.038Z,10.60
2023-02-25T15:22:29.415Z,12.80
2023-02-25T15:25:38.904Z,16.27
2023-02-25T15:28:56.400Z,16.53
2023-02-25T15:31:29.921Z,14.77
2023-02-25T15:34:54.912Z,22.53
2023-02-25T15:37:36.194Z,19.47
2023-02-25T15:40:46.236Z,14.63
2023-02-25T15:43:45.378Z,14.80
2023-02-25T15:46:50.042Z,15.50
2023-02-25T15:49:31.460Z,14.37
2023-02-25T15:52:04.663Z,19.57
2023-02-25T15:54:52.319Z,14.17
2023-02-25T15:57:38.985Z,13.37
2023-02-25T16:01:01.961Z,18.33
2023-02-25T16:03:46.836Z,15.07
2023-02-25T16:06:23.673Z,14.70
2023-02-25T16:09:02.619Z,14.00
2023-02-25T16:11:39.272Z,15.37
2023-02-25T16:14:16.199Z,16.90
2023-02-25T16:16:50.870Z,14.03
2023-02-25T16:19:26.755Z,18.43
2023-02-25T16:22:00.702Z,15.30
2023-02-25T16:24:29.868Z,16.27
2023-02-25T16:27:03.168Z,17.33
2023-02-25T16:29:56.886Z,21.00
2023-02-25T16:32:40.285Z,16.30
2023-02-25T16:35:17.530Z,17.63
2023-02-25T16:37:56.632Z,19.50
2023-02-25T16:40:30.858Z,15.73
2023-02-25T16:43:00.525Z,14.07
2023-02-25T16:45:31.426Z,19.13
2023-02-25T16:48:07.040Z,13.03
2023-02-25T16:50:38.075Z,21.67
2023-02-25T16:53:06.814Z,15.70
2023-02-25T16:55:41.712Z,16.40
2023-02-25T16:58:24.204Z,13.27
2023-02-25T17:00:56.405Z,14.13
2023-02-25T17:03:30.994Z,17.97
2023-02-25T17:06:08.216Z,17.03
2023-02-25T17:08:39.787Z,19.03
2023-02-25T17:11:08.808Z,14.73
2023-02-25T17:13:42.591Z,14.23
2023-02-25T17:16:29.198Z,15.17
2023-02-25T17:19:03.995Z,18.03
2023-02-25T17:21:39.320Z,21.00
2023-02-25T17:24:33.956Z,15.13
2023-02-25T17:27:02.925Z,22.23
2023-02-25T17:29:56.826Z,16.93
2023-02-25T17:32:28.438Z,14.40
2023-02-25T17:35:02.823Z,18.40
2023-02-25T17:37:34.363Z,21.27
2023-02-25T17:40:04.409Z,14.90
2023-02-25T17:42:36.907Z,18.73
2023-02-25T17:45:47.159Z,19.70
2023-02-25T17:48:19.442Z,17.37
2023-02-25T17:50:56.385Z,16.10
2023-02-25T17:53:39.360Z,18.17
2023-02-25T17:56:28.569Z,15.17
2023-02-25T17:59:04.359Z,15.73
2023-02-25T18:01:49.026Z,17.00
2023-02-25T18:04:27.523Z,22.37
2023-02-25T18:06:56.634Z,14.80
2023-02-25T18:09:41.873Z,15.93
2023-02-25T18:12:23.607Z,15.77
2023-02-25T18:14:57.660Z,21.10
2023-02-25T18:17:29.236Z,17.63
2023-02-25T18:20:01.987Z,16.43
2023-02-25T18:22:38.078Z,14.73
2023-02-25T18:25:36.678Z,16.93
2023-02-25T18:28:07.881Z,14.97
2023-02-25T18:30:36.365Z,19.97
2023-02-25T18:33:04.901Z,16.03
2023-02-25T18:35:34.353Z,15.40
2023-02-25T18:38:04.183Z,17.17
2023-02-25T18:40:37.934Z,17.93
2023-02-25T18:43:07.259Z,16.17
2023-02-25T18:45:36.280Z,17.47
2023-02-25T18:48:05.119Z,16.07
2023-02-25T18:50:34.652Z,15.97
2023-02-25T18:53:03.588Z,17.27
2023-02-25T18:55:35.677Z,16.30
2023-02-25T18:58:04.887Z,17.27
2023-02-25T19:00:33.627Z,14.80
2023-02-25T19:03:04.872Z,14.50
2023-02-25T19:05:33.796Z,15.90
2023-02-25T19:08:02.213Z,19.90
2023-02-25T19:10:34.290Z,15.77
2023-02-25T19:13:07.244Z,14.23
2023-02-25T19:15:36.035Z,18.63
2023-02-25T19:18:05.018Z,16.17
2023-02-25T19:20:33.844Z,17.40
2023-02-25T19:23:02.488Z,24.10
2023-02-25T19:25:35.865Z,18.20
2023-02-25T19:28:07.526Z,22.50
2023-02-25T19:30:39.914Z,29.30
2023-02-25T19:33:11.109Z,18.53
2023-02-25T19:35:42.171Z,17.80
2023-02-25T19:38:16.733Z,20.07
2023-02-25T19:40:50.396Z,20.53
2023-02-25T19:43:20.256Z,18.77
2023-02-25T19:45:50.441Z,19.57
2023-02-25T19:48:19.153Z,15.60
2023-02-25T19:50:47.662Z,18.93
2023-02-25T19:53:16.182Z,18.03
2023-02-25T19:55:44.828Z,17.93
2023-02-25T19:58:13.256Z,19.30
2023-02-25T20:00:46.342Z,19.83
2023-02-25T20:03:17.904Z,18.57
2023-02-25T20:05:46.557Z,17.47
2023-02-25T20:08:15.044Z,19.57
2023-02-25T20:10:44.752Z,15.87
2023-02-25T20:13:13.447Z,21.17
2023-02-25T20:15:43.456Z,19.77
2023-02-25T20:18:12.301Z,17.67
2023-02-25T20:20:43.369Z,19.17
2023-02-25T20:23:12.088Z,14.00
2023-02-25T20:25:40.734Z,18.00
2023-02-25T20:28:09.292Z,19.33
2023-02-25T20:30:38.610Z,17.80
2023-02-25T20:33:08.458Z,18.83
2023-02-25T20:35:37.532Z,12.83
2023-02-25T20:38:28.146Z,14.90
2023-02-25T20:40:56.917Z,17.50
2023-02-25T20:43:26.008Z,20.03
2023-02-25T20:45:55.056Z,19.57
2023-02-25T20:48:32.702Z,21.10
2023-02-25T20:51:02.373Z,17.63
2023-02-25T20:53:32.436Z,19.13
2023-02-25T20:56:00.932Z,21.43
2023-02-25T20:58:29.474Z,19.20
2023-02-25T21:00:58.364Z,27.57
2023-02-25T21:03:28.271Z,23.77
2023-02-25T21:05:56.766Z,19.87
2023-02-25T21:08:25.349Z,19.97
2023-02-25T21:10:53.990Z,19.87
2023-02-25T21:13:22.523Z,22.20
2023-02-25T21:15:51.123Z,18.30
2023-02-25T21:18:19.662Z,16.53
2023-02-25T21:20:49.564Z,20.20
2023-02-25T21:23:18.017Z,19.83
2023-02-25T21:25:46.850Z,17.10
2023-02-25T21:28:15.377Z,20.43
2023-02-25T21:30:43.964Z,18.20
2023-02-25T21:33:13.128Z,19.17
2023-02-25T21:36:09.637Z,17.80
2023-02-25T21:38:39.420Z,15.27
2023-02-25T21:41:10.613Z,18.70
2023-02-25T21:43:39.872Z,21.90
2023-02-25T21:46:11.022Z,26.03
2023-02-25T21:48:40.875Z,24.37
2023-02-25T21:51:17.056Z,24.10
2023-02-25T21:53:45.802Z,21.30
2023-02-25T21:56:16.807Z,29.73
2023-02-25T21:58:45.917Z,29.80
2023-02-25T22:01:17.961Z,22.33
2023-02-25T22:03:48.055Z,22.90
2023-02-25T22:06:18.364Z,25.67
2023-02-25T22:08:47.394Z,22.07
2023-02-25T22:11:18.851Z,31.27
2023-02-25T22:13:48.140Z,28.07
2023-02-25T22:16:17.005Z,22.53
2023-02-25T22:18:46.646Z,21.50
2023-02-25T22:21:23.911Z,24.93
2023-02-25T22:23:54.901Z,26.40
2023-02-25T22:26:26.669Z,17.43
2023-02-25T22:28:57.122Z,20.33
2023-02-25T22:31:26.961Z,24.50
2023-02-25T22:33:57.751Z,20.87
2023-02-25T22:36:28.040Z,28.93
2023-02-25T22:38:56.933Z,22.27
2023-02-25T22:41:28.031Z,13.97
2023-02-25T22:43:58.781Z,14.57
2023-02-25T22:46:29.613Z,21.30
2023-02-25T22:48:58.434Z,16.07
2023-02-25T22:51:32.773Z,17.63
2023-02-25T22:54:01.756Z,10.33
2023-02-25T22:56:30.320Z,15.67
2023-02-25T22:58:59.066Z,16.63
2023-02-25T23:01:28.931Z,18.80
2023-02-25T23:03:58.628Z,18.63
2023-02-25T23:06:42.974Z,12.90
2023-02-25T23:09:12.861Z,20.73
2023-02-25T23:11:43.733Z,17.97
2023-02-25T23:14:13.593Z,16.10
2023-02-25T23:16:44.854Z,13.17
2023-02-25T23:19:17.113Z,14.00
2023-02-25T23:21:47.726Z,18.60
2023-02-25T23:24:19.392Z,13.13
2023-02-25T23:26:50.728Z,12.60
2023-02-25T23:29:19.567Z,16.97
2023-02-25T23:31:49.744Z,13.07
2023-02-25T23:34:23.150Z,15.10
2023-02-25T23:36:57.826Z,13.33
2023-02-25T23:39:27.827Z,12.80
2023-02-25T23:41:56.292Z,13.23
2023-02-25T23:44:25.234Z,12.03
2023-02-25T23:46:53.786Z,9.93
2023-02-25T23:49:22.789Z,8.70
2023-02-25T23:51:52.761Z,13.27
2023-02-25T23:54:23.865Z,13.17
2023-02-25T23:56:52.558Z,11.33
2023-02-25T23:59:24.187Z,14.77
